WMT136 LIPZ-LHBP
Flight info
| Callsign | WMT136 |
|---|---|
| Flight time | 0h 53m |
| Altitude | 33000 |
| Route | ROSKA7L/04R ROSKA DCT ROTAR DCT RJK DCT KOPRY DCT ULZAK |
| Aircraft | A21N/M-SDE1E2E3FGIJ1J4RWXY/LB1 |
Departure
| Time | 2026-05-06 13:18 |
|---|---|
| Airport | Venice Marco Polo Airport (LIPZ) |
Arrival
| Time | 2026-05-06 14:11 |
|---|---|
| Airport | Budapest Liszt Ferenc International Airport (LHBP) |
| Time | Latitude | Longitude | Altitude | Speed | Heading |
|---|---|---|---|---|---|
| 2026-05-06 12:52 | 45.50021 | 12.33873 | 13 ft | 0 kts | 312° |
| 2026-05-06 13:02 | 45.50022 | 12.33872 | 13 ft | 0 kts | 312° |
| 2026-05-06 13:02 | 45.50024 | 12.33869 | 13 ft | 0 kts | 312° |
| 2026-05-06 13:07 | 45.50016 | 12.33881 | 13 ft | 2 kts | 312° |
| 2026-05-06 13:08 | 45.50006 | 12.33896 | 13 ft | 2 kts | 312° |
| 2026-05-06 13:08 | 45.50000 | 12.33906 | 13 ft | 1 kts | 312° |
| 2026-05-06 13:08 | 45.49992 | 12.33924 | 13 ft | 2 kts | 285° |
| 2026-05-06 13:08 | 45.49989 | 12.33945 | 13 ft | 2 kts | 264° |
| 2026-05-06 13:09 | 45.49993 | 12.33966 | 13 ft | 2 kts | 241° |
| 2026-05-06 13:09 | 45.50000 | 12.33979 | 14 ft | 0 kts | 224° |
| 2026-05-06 13:09 | 45.50005 | 12.33986 | 14 ft | 0 kts | 221° |
| 2026-05-06 13:14 | 45.49999 | 12.33978 | 13 ft | 4 kts | 221° |
| 2026-05-06 13:14 | 45.49972 | 12.33945 | 13 ft | 5 kts | 221° |
| 2026-05-06 13:15 | 45.49941 | 12.33905 | 13 ft | 6 kts | 221° |
| 2026-05-06 13:15 | 45.49904 | 12.33863 | 13 ft | 7 kts | 210° |
| 2026-05-06 13:15 | 45.49854 | 12.33837 | 13 ft | 8 kts | 193° |
| 2026-05-06 13:15 | 45.49797 | 12.33820 | 13 ft | 8 kts | 191° |
| 2026-05-06 13:16 | 45.49733 | 12.33800 | 13 ft | 9 kts | 194° |
| 2026-05-06 13:16 | 45.49672 | 12.33753 | 13 ft | 10 kts | 216° |
| 2026-05-06 13:16 | 45.49613 | 12.33691 | 13 ft | 10 kts | 201° |
| 2026-05-06 13:16 | 45.49546 | 12.33728 | 13 ft | 11 kts | 137° |
| 2026-05-06 13:17 | 45.49499 | 12.33816 | 13 ft | 11 kts | 109° |
| 2026-05-06 13:17 | 45.49527 | 12.33919 | 13 ft | 16 kts | 45° |
| 2026-05-06 13:17 | 45.49806 | 12.34290 | 14 ft | 95 kts | 41° |
| 2026-05-06 13:17 | 45.50482 | 12.35148 | 20 ft | 160 kts | 43° |
| 2026-05-06 13:18 | 45.51380 | 12.36264 | 468 ft | 178 kts | 45° |
| 2026-05-06 13:18 | 45.52266 | 12.37515 | 1137 ft | 189 kts | 47° |
| 2026-05-06 13:18 | 45.53219 | 12.38919 | 1777 ft | 207 kts | 53° |
| 2026-05-06 13:18 | 45.53829 | 12.40813 | 2422 ft | 218 kts | 91° |
| 2026-05-06 13:19 | 45.53633 | 12.42986 | 3139 ft | 230 kts | 104° |
| 2026-05-06 13:19 | 45.53299 | 12.45262 | 3849 ft | 247 kts | 104° |
| 2026-05-06 13:19 | 45.52977 | 12.47722 | 4757 ft | 256 kts | 103° |
| 2026-05-06 13:19 | 45.52685 | 12.50218 | 5742 ft | 260 kts | 103° |
| 2026-05-06 13:20 | 45.52079 | 12.52651 | 6473 ft | 268 kts | 126° |
| 2026-05-06 13:20 | 45.50920 | 12.54778 | 7244 ft | 278 kts | 134° |
| 2026-05-06 13:20 | 45.49664 | 12.56828 | 8204 ft | 282 kts | 135° |
| 2026-05-06 13:20 | 45.48401 | 12.58944 | 9201 ft | 285 kts | 134° |
| 2026-05-06 13:21 | 45.47156 | 12.61118 | 10162 ft | 288 kts | 133° |
| 2026-05-06 13:21 | 45.45887 | 12.63390 | 10911 ft | 300 kts | 133° |
| 2026-05-06 13:21 | 45.44576 | 12.65768 | 11442 ft | 318 kts | 133° |
| 2026-05-06 13:21 | 45.43182 | 12.68328 | 11935 ft | 336 kts | 132° |
| 2026-05-06 13:22 | 45.41724 | 12.71021 | 12397 ft | 355 kts | 132° |
| 2026-05-06 13:22 | 45.40181 | 12.73882 | 12910 ft | 371 kts | 132° |
| 2026-05-06 13:22 | 45.38578 | 12.76858 | 13474 ft | 384 kts | 132° |
| 2026-05-06 13:22 | 45.36969 | 12.79851 | 14247 ft | 389 kts | 132° |
| 2026-05-06 13:23 | 45.35322 | 12.82914 | 15072 ft | 393 kts | 132° |
| 2026-05-06 13:23 | 45.33655 | 12.86008 | 15823 ft | 398 kts | 132° |
| 2026-05-06 13:23 | 45.31975 | 12.89118 | 16518 ft | 403 kts | 132° |
| 2026-05-06 13:23 | 45.30250 | 12.92300 | 17215 ft | 407 kts | 132° |
| 2026-05-06 13:24 | 45.28542 | 12.95465 | 17865 ft | 412 kts | 131° |
| 2026-05-06 13:24 | 45.27076 | 12.99047 | 18465 ft | 425 kts | 117° |
| 2026-05-06 13:24 | 45.26241 | 13.03064 | 19086 ft | 436 kts | 103° |
| 2026-05-06 13:24 | 45.26012 | 13.07407 | 19722 ft | 443 kts | 95° |
| 2026-05-06 13:25 | 45.25944 | 13.11759 | 20279 ft | 447 kts | 94° |
| 2026-05-06 13:25 | 45.25894 | 13.16193 | 20788 ft | 451 kts | 94° |
| 2026-05-06 13:25 | 45.25838 | 13.20614 | 21284 ft | 454 kts | 94° |
| 2026-05-06 13:25 | 45.25770 | 13.25075 | 21770 ft | 457 kts | 95° |
| 2026-05-06 13:26 | 45.25690 | 13.29609 | 22235 ft | 460 kts | 95° |
| 2026-05-06 13:26 | 45.25603 | 13.34112 | 22664 ft | 462 kts | 95° |
| 2026-05-06 13:26 | 45.25510 | 13.38719 | 23065 ft | 465 kts | 95° |
| 2026-05-06 13:26 | 45.25414 | 13.43297 | 23462 ft | 468 kts | 95° |
| 2026-05-06 13:27 | 45.25315 | 13.47896 | 23839 ft | 470 kts | 95° |
| 2026-05-06 13:27 | 45.25212 | 13.52529 | 24170 ft | 473 kts | 95° |
| 2026-05-06 13:27 | 45.25108 | 13.57154 | 24484 ft | 476 kts | 95° |
| 2026-05-06 13:27 | 45.25000 | 13.61915 | 24792 ft | 479 kts | 95° |
| 2026-05-06 13:28 | 45.24889 | 13.66608 | 25103 ft | 481 kts | 96° |
| 2026-05-06 13:28 | 45.24777 | 13.71369 | 25391 ft | 484 kts | 96° |
| 2026-05-06 13:28 | 45.24662 | 13.76150 | 25682 ft | 486 kts | 95° |
| 2026-05-06 13:28 | 45.24543 | 13.80964 | 26055 ft | 485 kts | 95° |
| 2026-05-06 13:29 | 45.24424 | 13.85734 | 26439 ft | 485 kts | 95° |
| 2026-05-06 13:29 | 45.24304 | 13.90478 | 26805 ft | 484 kts | 96° |
| 2026-05-06 13:29 | 45.24182 | 13.95279 | 27151 ft | 484 kts | 96° |
| 2026-05-06 13:29 | 45.24056 | 14.00030 | 27473 ft | 484 kts | 96° |
| 2026-05-06 13:30 | 45.23929 | 14.04767 | 27775 ft | 484 kts | 96° |
| 2026-05-06 13:30 | 45.23799 | 14.09508 | 28084 ft | 484 kts | 96° |
| 2026-05-06 13:30 | 45.23668 | 14.14303 | 28347 ft | 486 kts | 96° |
| 2026-05-06 13:30 | 45.23535 | 14.19074 | 28654 ft | 486 kts | 96° |
| 2026-05-06 13:31 | 45.23401 | 14.23853 | 28962 ft | 486 kts | 96° |
| 2026-05-06 13:31 | 45.23262 | 14.28611 | 29266 ft | 485 kts | 96° |
| 2026-05-06 13:31 | 45.23122 | 14.33413 | 29548 ft | 486 kts | 96° |
| 2026-05-06 13:31 | 45.22980 | 14.38182 | 29811 ft | 486 kts | 96° |
| 2026-05-06 13:32 | 45.22837 | 14.42916 | 30084 ft | 486 kts | 96° |
| 2026-05-06 13:32 | 45.22743 | 14.47727 | 30382 ft | 488 kts | 92° |
| 2026-05-06 13:32 | 45.23013 | 14.52515 | 30672 ft | 491 kts | 84° |
| 2026-05-06 13:32 | 45.23725 | 14.57256 | 30984 ft | 493 kts | 75° |
| 2026-05-06 13:33 | 45.24885 | 14.61868 | 31292 ft | 493 kts | 67° |
| 2026-05-06 13:33 | 45.26434 | 14.66159 | 31553 ft | 494 kts | 60° |
| 2026-05-06 13:33 | 45.28227 | 14.70293 | 31784 ft | 495 kts | 58° |
| 2026-05-06 13:33 | 45.30089 | 14.74421 | 31975 ft | 497 kts | 57° |
| 2026-05-06 13:34 | 45.31950 | 14.78541 | 32159 ft | 498 kts | 58° |
| 2026-05-06 13:34 | 45.33803 | 14.82679 | 32407 ft | 498 kts | 58° |
| 2026-05-06 13:34 | 45.35667 | 14.86879 | 32643 ft | 499 kts | 58° |
| 2026-05-06 13:34 | 45.37512 | 14.91065 | 32834 ft | 500 kts | 58° |
| 2026-05-06 13:35 | 45.39345 | 14.95246 | 32998 ft | 501 kts | 58° |
| 2026-05-06 13:35 | 45.43016 | 15.03662 | 32995 ft | 502 kts | 58° |
| 2026-05-06 13:36 | 45.46669 | 15.12068 | 32991 ft | 501 kts | 58° |
| 2026-05-06 13:36 | 45.50320 | 15.20492 | 32993 ft | 500 kts | 58° |
| 2026-05-06 13:37 | 45.53966 | 15.28932 | 32987 ft | 500 kts | 58° |
| 2026-05-06 13:37 | 45.57597 | 15.37362 | 32989 ft | 499 kts | 58° |
| 2026-05-06 13:38 | 45.61194 | 15.45737 | 32988 ft | 498 kts | 58° |
| 2026-05-06 13:38 | 45.64794 | 15.54143 | 32986 ft | 498 kts | 58° |
| 2026-05-06 13:39 | 45.68409 | 15.62609 | 32990 ft | 498 kts | 58° |
| 2026-05-06 13:39 | 45.72004 | 15.71059 | 32987 ft | 498 kts | 59° |
| 2026-05-06 13:40 | 45.75590 | 15.79507 | 32989 ft | 497 kts | 59° |
| 2026-05-06 13:40 | 45.79147 | 15.87916 | 32990 ft | 496 kts | 59° |
| 2026-05-06 13:41 | 45.82714 | 15.96374 | 32988 ft | 495 kts | 59° |
| 2026-05-06 13:41 | 45.86247 | 16.04775 | 32986 ft | 494 kts | 59° |
| 2026-05-06 13:42 | 45.89783 | 16.13211 | 32985 ft | 493 kts | 59° |
| 2026-05-06 13:42 | 45.93295 | 16.21615 | 32979 ft | 493 kts | 59° |
| 2026-05-06 13:43 | 45.96827 | 16.30092 | 32980 ft | 493 kts | 59° |
| 2026-05-06 13:43 | 46.00341 | 16.38553 | 32974 ft | 493 kts | 59° |
| 2026-05-06 13:44 | 46.03851 | 16.47028 | 32963 ft | 493 kts | 59° |
| 2026-05-06 13:44 | 46.07357 | 16.55520 | 32956 ft | 493 kts | 59° |
| 2026-05-06 13:45 | 46.10828 | 16.63952 | 32948 ft | 493 kts | 59° |
| 2026-05-06 13:45 | 46.16058 | 16.76707 | 32951 ft | 493 kts | 59° |
| 2026-05-06 13:46 | 46.19527 | 16.85204 | 32948 ft | 493 kts | 59° |
| 2026-05-06 13:46 | 46.23005 | 16.93748 | 32945 ft | 493 kts | 59° |
| 2026-05-06 13:47 | 46.26769 | 17.02022 | 32941 ft | 493 kts | 54° |
| 2026-05-06 13:47 | 46.30693 | 17.10127 | 32943 ft | 493 kts | 54° |
| 2026-05-06 13:48 | 46.34613 | 17.18250 | 32944 ft | 493 kts | 54° |
| 2026-05-06 13:48 | 46.38503 | 17.26353 | 32945 ft | 493 kts | 54° |
| 2026-05-06 13:49 | 46.42402 | 17.34513 | 32945 ft | 494 kts | 54° |
| 2026-05-06 13:49 | 46.46280 | 17.42652 | 32949 ft | 493 kts | 54° |
| 2026-05-06 13:50 | 46.48231 | 17.46754 | 32821 ft | 495 kts | 54° |
| 2026-05-06 13:50 | 46.50188 | 17.50878 | 32544 ft | 492 kts | 54° |
| 2026-05-06 13:50 | 46.52118 | 17.54953 | 32274 ft | 488 kts | 54° |
| 2026-05-06 13:50 | 46.54014 | 17.58960 | 31972 ft | 486 kts | 53° |
| 2026-05-06 13:51 | 46.55922 | 17.62995 | 31491 ft | 484 kts | 54° |
| 2026-05-06 13:51 | 46.57814 | 17.67000 | 30869 ft | 484 kts | 54° |
| 2026-05-06 13:51 | 46.59707 | 17.71013 | 30160 ft | 484 kts | 54° |
| 2026-05-06 13:51 | 46.61615 | 17.75070 | 29429 ft | 485 kts | 54° |
| 2026-05-06 13:52 | 46.63511 | 17.79103 | 28705 ft | 486 kts | 54° |
| 2026-05-06 13:52 | 46.65417 | 17.83166 | 27963 ft | 486 kts | 54° |
| 2026-05-06 13:52 | 46.67304 | 17.87197 | 27210 ft | 486 kts | 55° |
| 2026-05-06 13:52 | 46.69188 | 17.91221 | 26470 ft | 486 kts | 55° |
| 2026-05-06 13:53 | 46.71091 | 17.95297 | 25716 ft | 485 kts | 55° |
| 2026-05-06 13:53 | 46.72971 | 17.99329 | 24969 ft | 484 kts | 55° |
| 2026-05-06 13:53 | 46.74833 | 18.03326 | 24463 ft | 476 kts | 55° |
| 2026-05-06 13:53 | 46.76688 | 18.07317 | 23938 ft | 470 kts | 55° |
| 2026-05-06 13:54 | 46.78498 | 18.11215 | 23425 ft | 464 kts | 55° |
| 2026-05-06 13:54 | 46.80284 | 18.15065 | 22884 ft | 459 kts | 56° |
| 2026-05-06 13:54 | 46.82049 | 18.18877 | 22352 ft | 455 kts | 56° |
| 2026-05-06 13:54 | 46.83818 | 18.22706 | 21804 ft | 450 kts | 56° |
| 2026-05-06 13:55 | 46.85551 | 18.26458 | 21270 ft | 446 kts | 56° |
| 2026-05-06 13:55 | 46.87254 | 18.30150 | 20731 ft | 442 kts | 56° |
| 2026-05-06 13:55 | 46.88972 | 18.33880 | 20177 ft | 439 kts | 56° |
| 2026-05-06 13:55 | 46.90651 | 18.37531 | 19644 ft | 435 kts | 56° |
| 2026-05-06 13:56 | 46.92329 | 18.41183 | 19097 ft | 432 kts | 56° |
| 2026-05-06 13:56 | 46.93994 | 18.44816 | 18560 ft | 429 kts | 56° |
| 2026-05-06 13:56 | 46.95652 | 18.48436 | 18002 ft | 426 kts | 56° |
| 2026-05-06 13:56 | 46.97268 | 18.51971 | 17472 ft | 423 kts | 56° |
| 2026-05-06 13:57 | 46.99080 | 18.55387 | 16906 ft | 421 kts | 47° |
| 2026-05-06 13:57 | 47.01218 | 18.58226 | 16359 ft | 418 kts | 37° |
| 2026-05-06 13:57 | 47.03640 | 18.60579 | 15816 ft | 416 kts | 31° |
| 2026-05-06 13:57 | 47.06107 | 18.62739 | 15276 ft | 413 kts | 29° |
| 2026-05-06 13:58 | 47.08539 | 18.64840 | 14732 ft | 411 kts | 29° |
| 2026-05-06 13:58 | 47.11002 | 18.66989 | 14194 ft | 409 kts | 30° |
| 2026-05-06 13:58 | 47.13461 | 18.69162 | 13651 ft | 407 kts | 31° |
| 2026-05-06 13:58 | 47.15859 | 18.71293 | 13111 ft | 405 kts | 31° |
| 2026-05-06 13:59 | 47.18127 | 18.73643 | 12572 ft | 404 kts | 40° |
| 2026-05-06 13:59 | 47.20056 | 18.76637 | 12029 ft | 402 kts | 52° |
| 2026-05-06 13:59 | 47.21614 | 18.80039 | 11544 ft | 397 kts | 59° |
| 2026-05-06 13:59 | 47.23027 | 18.83443 | 11271 ft | 386 kts | 59° |
| 2026-05-06 14:00 | 47.24386 | 18.86731 | 11097 ft | 374 kts | 59° |
| 2026-05-06 14:00 | 47.25722 | 18.89927 | 10853 ft | 364 kts | 59° |
| 2026-05-06 14:00 | 47.27034 | 18.93034 | 10700 ft | 351 kts | 59° |
| 2026-05-06 14:00 | 47.28305 | 18.96034 | 10567 ft | 339 kts | 58° |
| 2026-05-06 14:01 | 47.29535 | 18.98932 | 10385 ft | 329 kts | 58° |
| 2026-05-06 14:01 | 47.30855 | 19.01628 | 10255 ft | 317 kts | 50° |
| 2026-05-06 14:01 | 47.32363 | 19.03923 | 9984 ft | 311 kts | 43° |
| 2026-05-06 14:01 | 47.33969 | 19.06068 | 9975 ft | 312 kts | 41° |
| 2026-05-06 14:02 | 47.35576 | 19.08173 | 9971 ft | 312 kts | 41° |
| 2026-05-06 14:02 | 47.37201 | 19.10258 | 9942 ft | 300 kts | 35° |
| 2026-05-06 14:02 | 47.39023 | 19.11411 | 9927 ft | 282 kts | 1° |
| 2026-05-06 14:02 | 47.40893 | 19.10947 | 9950 ft | 271 kts | 326° |
| 2026-05-06 14:03 | 47.42268 | 19.09153 | 9999 ft | 260 kts | 303° |
| 2026-05-06 14:03 | 47.43323 | 19.07036 | 9774 ft | 253 kts | 301° |
| 2026-05-06 14:03 | 47.44382 | 19.04958 | 9159 ft | 257 kts | 303° |
| 2026-05-06 14:03 | 47.45512 | 19.02918 | 8583 ft | 258 kts | 306° |
| 2026-05-06 14:04 | 47.46672 | 19.00940 | 8045 ft | 257 kts | 307° |
| 2026-05-06 14:04 | 47.47866 | 18.98961 | 7495 ft | 256 kts | 307° |
| 2026-05-06 14:04 | 47.49057 | 18.97013 | 6929 ft | 255 kts | 307° |
| 2026-05-06 14:04 | 47.50239 | 18.95083 | 6384 ft | 254 kts | 308° |
| 2026-05-06 14:05 | 47.51409 | 18.93181 | 5892 ft | 251 kts | 307° |
| 2026-05-06 14:05 | 47.52591 | 18.91326 | 5501 ft | 246 kts | 315° |
| 2026-05-06 14:05 | 47.54136 | 18.90264 | 5108 ft | 250 kts | 353° |
| 2026-05-06 14:05 | 47.55828 | 18.90701 | 4810 ft | 252 kts | 28° |
| 2026-05-06 14:06 | 47.57190 | 18.92298 | 4541 ft | 250 kts | 46° |
| 2026-05-06 14:06 | 47.58422 | 18.94099 | 4294 ft | 249 kts | 47° |
| 2026-05-06 14:06 | 47.59356 | 18.96234 | 3956 ft | 243 kts | 83° |
| 2026-05-06 14:06 | 47.59259 | 18.98617 | 3909 ft | 230 kts | 117° |
| 2026-05-06 14:07 | 47.58374 | 19.00505 | 3775 ft | 218 kts | 140° |
| 2026-05-06 14:07 | 47.57333 | 19.02062 | 3626 ft | 202 kts | 140° |
| 2026-05-06 14:07 | 47.56396 | 19.03498 | 3546 ft | 193 kts | 139° |
| 2026-05-06 14:07 | 47.55502 | 19.04929 | 3458 ft | 187 kts | 138° |
| 2026-05-06 14:08 | 47.54621 | 19.06354 | 3197 ft | 185 kts | 138° |
| 2026-05-06 14:08 | 47.53760 | 19.07747 | 2991 ft | 180 kts | 138° |
| 2026-05-06 14:08 | 47.52946 | 19.09064 | 2724 ft | 170 kts | 139° |
| 2026-05-06 14:08 | 47.52174 | 19.10314 | 2480 ft | 159 kts | 140° |
| 2026-05-06 14:09 | 47.51422 | 19.11523 | 2265 ft | 160 kts | 141° |
| 2026-05-06 14:09 | 47.50658 | 19.12746 | 2070 ft | 163 kts | 139° |
| 2026-05-06 14:09 | 47.49884 | 19.13995 | 1861 ft | 165 kts | 139° |
| 2026-05-06 14:09 | 47.49120 | 19.15236 | 1647 ft | 159 kts | 140° |
| 2026-05-06 14:10 | 47.48391 | 19.16414 | 1438 ft | 156 kts | 139° |
| 2026-05-06 14:10 | 47.47665 | 19.17580 | 1264 ft | 153 kts | 138° |
| 2026-05-06 14:10 | 47.46950 | 19.18734 | 1066 ft | 151 kts | 139° |
| 2026-05-06 14:10 | 47.46239 | 19.19880 | 845 ft | 152 kts | 139° |
| 2026-05-06 14:11 | 47.45513 | 19.21055 | 673 ft | 153 kts | 138° |
| 2026-05-06 14:11 | 47.44820 | 19.22206 | 460 ft | 145 kts | 139° |
| 2026-05-06 14:11 | 47.44190 | 19.23160 | 446 ft | 99 kts | 131° |
| 2026-05-06 14:11 | 47.43902 | 19.23632 | 443 ft | 45 kts | 132° |
| 2026-05-06 14:12 | 47.43758 | 19.23892 | 441 ft | 14 kts | 120° |
| 2026-05-06 14:12 | 47.43713 | 19.24030 | 440 ft | 14 kts | 109° |
| 2026-05-06 14:12 | 47.43682 | 19.24172 | 440 ft | 14 kts | 102° |
| 2026-05-06 14:12 | 47.43662 | 19.24309 | 441 ft | 13 kts | 102° |
| 2026-05-06 14:13 | 47.43632 | 19.24430 | 443 ft | 11 kts | 115° |
| 2026-05-06 14:13 | 47.43596 | 19.24526 | 444 ft | 9 kts | 124° |
| 2026-05-06 14:13 | 47.43558 | 19.24599 | 446 ft | 8 kts | 130° |
| 2026-05-06 14:13 | 47.43492 | 19.24704 | 447 ft | 15 kts | 132° |
| 2026-05-06 14:14 | 47.43426 | 19.24811 | 449 ft | 13 kts | 132° |
| 2026-05-06 14:14 | 47.43370 | 19.24902 | 451 ft | 10 kts | 133° |
| 2026-05-06 14:14 | 47.43324 | 19.24975 | 453 ft | 8 kts | 133° |
| 2026-05-06 14:14 | 47.43285 | 19.25036 | 454 ft | 7 kts | 133° |
| 2026-05-06 14:15 | 47.43256 | 19.25083 | 455 ft | 5 kts | 127° |
| 2026-05-06 14:15 | 47.43235 | 19.25148 | 456 ft | 10 kts | 104° |
| 2026-05-06 14:15 | 47.43255 | 19.25266 | 459 ft | 14 kts | 51° |
| 2026-05-06 14:15 | 47.43332 | 19.25374 | 464 ft | 14 kts | 42° |
| 2026-05-06 14:16 | 47.43401 | 19.25465 | 466 ft | 12 kts | 41° |
| 2026-05-06 14:16 | 47.43460 | 19.25543 | 469 ft | 10 kts | 41° |
| 2026-05-06 14:16 | 47.43510 | 19.25609 | 471 ft | 8 kts | 41° |
| 2026-05-06 14:16 | 47.43540 | 19.25676 | 473 ft | 7 kts | 88° |
| 2026-05-06 14:17 | 47.43515 | 19.25747 | 473 ft | 8 kts | 130° |
| 2026-05-06 14:17 | 47.43498 | 19.25820 | 473 ft | 7 kts | 72° |
| 2026-05-06 14:17 | 47.43532 | 19.25882 | 474 ft | 7 kts | 28° |
| 2026-05-06 14:17 | 47.43573 | 19.25861 | 475 ft | 6 kts | 322° |
| 2026-05-06 14:18 | 47.43577 | 19.25855 | 475 ft | 0 kts | 317° |